sensor_id;sensor_type;location;lat;lon;timestamp;P1;durP1;ratioP1;P2;durP2;ratioP2
24867;SDS011;12941;48.698;9.310;2023-09-08T00:00:24;6.6;;;5.2;;
24867;SDS011;12941;48.698;9.310;2023-09-08T00:01:29;6.6;;;5.2;;
24867;SDS011;12941;48.698;9.310;2023-09-08T00:02:29;5.4;;;4.9;;
24867;SDS011;12941;48.698;9.310;2023-09-08T00:03:29;5.4;;;4.9;;
24867;SDS011;12941;48.698;9.310;2023-09-08T00:04:29;5.4;;;4.9;;
24867;SDS011;12941;48.698;9.310;2023-09-08T00:05:34;5.4;;;4.9;;
24867;SDS011;12941;48.698;9.310;2023-09-08T00:06:34;5.4;;;4.9;;
24867;SDS011;12941;48.698;9.310;2023-09-08T00:07:39;5.9;;;5.3;;
24867;SDS011;12941;48.698;9.310;2023-09-08T00:08:39;5.9;;;5.3;;
24867;SDS011;12941;48.698;9.310;2023-09-08T00:09:44;5.9;;;5.3;;
24867;SDS011;12941;48.698;9.310;2023-09-08T00:10:44;5.9;;;5.3;;
24867;SDS011;12941;48.698;9.310;2023-09-08T00:11:49;5.9;;;5.3;;
24867;SDS011;12941;48.698;9.310;2023-09-08T00:12:54;5.8;;;5.1;;
24867;SDS011;12941;48.698;9.310;2023-09-08T00:13:59;5.8;;;5.1;;
24867;SDS011;12941;48.698;9.310;2023-09-08T00:14:59;5.8;;;5.1;;
24867;SDS011;12941;48.698;9.310;2023-09-08T00:15:59;5.8;;;5.1;;
24867;SDS011;12941;48.698;9.310;2023-09-08T00:17:04;5.7;;;5;;
24867;SDS011;12941;48.698;9.310;2023-09-08T00:18:09;5.7;;;5;;
24867;SDS011;12941;48.698;9.310;2023-09-08T00:19:14;5.7;;;5;;
24867;SDS011;12941;48.698;9.310;2023-09-08T00:20:19;5.7;;;5;;
24867;SDS011;12941;48.698;9.310;2023-09-08T00:21:19;5.7;;;5;;
24867;SDS011;12941;48.698;9.310;2023-09-08T00:22:19;6.7;;;5.3;;
24867;SDS011;12941;48.698;9.310;2023-09-08T00:23:19;6.7;;;5.3;;
24867;SDS011;12941;48.698;9.310;2023-09-08T00:24:24;6.7;;;5.3;;
24867;SDS011;12941;48.698;9.310;2023-09-08T00:25:24;6.7;;;5.3;;
24867;SDS011;12941;48.698;9.310;2023-09-08T00:26:29;6.7;;;5.3;;
24867;SDS011;12941;48.698;9.310;2023-09-08T00:27:29;6.1;;;5.1;;
24867;SDS011;12941;48.698;9.310;2023-09-08T00:28:34;6.1;;;5.1;;
24867;SDS011;12941;48.698;9.310;2023-09-08T00:29:39;6.1;;;5.1;;
24867;SDS011;12941;48.698;9.310;2023-09-08T00:30:44;6.1;;;5.1;;
24867;SDS011;12941;48.698;9.310;2023-09-08T00:31:49;6.1;;;5.1;;
24867;SDS011;12941;48.698;9.310;2023-09-08T00:32:54;6.9;;;4.8;;
24867;SDS011;12941;48.698;9.310;2023-09-08T00:33:54;6.9;;;4.8;;
24867;SDS011;12941;48.698;9.310;2023-09-08T00:34:59;6.9;;;4.8;;
24867;SDS011;12941;48.698;9.310;2023-09-08T00:36:04;6.9;;;4.8;;
24867;SDS011;12941;48.698;9.310;2023-09-08T00:37:06;5.5;;;4.5;;
24867;SDS011;12941;48.698;9.310;2023-09-08T00:38:09;5.5;;;4.5;;
24867;SDS011;12941;48.698;9.310;2023-09-08T00:39:14;5.5;;;4.5;;
24867;SDS011;12941;48.698;9.310;2023-09-08T00:40:14;5.5;;;4.5;;
24867;SDS011;12941;48.698;9.310;2023-09-08T00:41:14;5.5;;;4.5;;
24867;SDS011;12941;48.698;9.310;2023-09-08T00:42:14;6.3;;;4.8;;
24867;SDS011;12941;48.698;9.310;2023-09-08T00:43:19;6.3;;;4.8;;
24867;SDS011;12941;48.698;9.310;2023-09-08T00:44:24;6.3;;;4.8;;
24867;SDS011;12941;48.698;9.310;2023-09-08T00:45:29;6.3;;;4.8;;
24867;SDS011;12941;48.698;9.310;2023-09-08T00:46:34;6.3;;;4.8;;
24867;SDS011;12941;48.698;9.310;2023-09-08T00:47:39;6.2;;;4.6;;
24867;SDS011;12941;48.698;9.310;2023-09-08T00:48:39;6.2;;;4.6;;
24867;SDS011;12941;48.698;9.310;2023-09-08T00:49:44;6.2;;;4.6;;
24867;SDS011;12941;48.698;9.310;2023-09-08T00:50:44;6.2;;;4.6;;
24867;SDS011;12941;48.698;9.310;2023-09-08T00:51:49;6.2;;;4.6;;
24867;SDS011;12941;48.698;9.310;2023-09-08T00:52:54;5.2;;;4.7;;
24867;SDS011;12941;48.698;9.310;2023-09-08T00:53:59;5.2;;;4.7;;
24867;SDS011;12941;48.698;9.310;2023-09-08T00:54:59;5.2;;;4.7;;
24867;SDS011;12941;48.698;9.310;2023-09-08T00:56:04;5.2;;;4.7;;
24867;SDS011;12941;48.698;9.310;2023-09-08T00:57:06;7;;;5.4;;
24867;SDS011;12941;48.698;9.310;2023-09-08T00:58:09;7;;;5.4;;
24867;SDS011;12941;48.698;9.310;2023-09-08T00:59:14;7;;;5.4;;
24867;SDS011;12941;48.698;9.310;2023-09-08T01:00:14;7;;;5.4;;
24867;SDS011;12941;48.698;9.310;2023-09-08T01:01:19;7;;;5.4;;
24867;SDS011;12941;48.698;9.310;2023-09-08T01:02:20;5.8;;;5.1;;
24867;SDS011;12941;48.698;9.310;2023-09-08T01:03:24;5.8;;;5.1;;
24867;SDS011;12941;48.698;9.310;2023-09-08T01:04:29;5.8;;;5.1;;
24867;SDS011;12941;48.698;9.310;2023-09-08T01:05:29;5.8;;;5.1;;
24867;SDS011;12941;48.698;9.310;2023-09-08T01:06:34;5.8;;;5.1;;
24867;SDS011;12941;48.698;9.310;2023-09-08T01:07:39;6;;;5.4;;
24867;SDS011;12941;48.698;9.310;2023-09-08T01:08:39;6;;;5.4;;
24867;SDS011;12941;48.698;9.310;2023-09-08T01:09:45;6;;;5.4;;
24867;SDS011;12941;48.698;9.310;2023-09-08T01:10:44;6;;;5.4;;
24867;SDS011;12941;48.698;9.310;2023-09-08T01:11:49;6;;;5.4;;
24867;SDS011;12941;48.698;9.310;2023-09-08T01:12:49;6;;;5.2;;
24867;SDS011;12941;48.698;9.310;2023-09-08T01:13:54;6;;;5.2;;
24867;SDS011;12941;48.698;9.310;2023-09-08T01:14:59;6;;;5.2;;
24867;SDS011;12941;48.698;9.310;2023-09-08T01:16:04;6;;;5.2;;
24867;SDS011;12941;48.698;9.310;2023-09-08T01:17:06;4.9;;;4.4;;
24867;SDS011;12941;48.698;9.310;2023-09-08T01:18:09;4.9;;;4.4;;
24867;SDS011;12941;48.698;9.310;2023-09-08T01:19:10;4.9;;;4.4;;
24867;SDS011;12941;48.698;9.310;2023-09-08T01:20:14;4.9;;;4.4;;
24867;SDS011;12941;48.698;9.310;2023-09-08T01:21:22;4.9;;;4.4;;
24867;SDS011;12941;48.698;9.310;2023-09-08T01:22:21;5.6;;;4.8;;
24867;SDS011;12941;48.698;9.310;2023-09-08T01:23:21;5.6;;;4.8;;
24867;SDS011;12941;48.698;9.310;2023-09-08T01:24:30;5.6;;;4.8;;
24867;SDS011;12941;48.698;9.310;2023-09-08T01:25:30;5.6;;;4.8;;
24867;SDS011;12941;48.698;9.310;2023-09-08T01:26:35;5.6;;;4.8;;
24867;SDS011;12941;48.698;9.310;2023-09-08T01:27:35;5.7;;;5.1;;
24867;SDS011;12941;48.698;9.310;2023-09-08T01:28:40;5.7;;;5.1;;
24867;SDS011;12941;48.698;9.310;2023-09-08T01:29:44;5.7;;;5.1;;
24867;SDS011;12941;48.698;9.310;2023-09-08T01:30:45;5.7;;;5.1;;
24867;SDS011;12941;48.698;9.310;2023-09-08T01:31:45;5.7;;;5.1;;
24867;SDS011;12941;48.698;9.310;2023-09-08T01:32:50;6.1;;;5.2;;
24867;SDS011;12941;48.698;9.310;2023-09-08T01:33:50;6.1;;;5.2;;
24867;SDS011;12941;48.698;9.310;2023-09-08T01:34:54;6.1;;;5.2;;
24867;SDS011;12941;48.698;9.310;2023-09-08T01:36:00;6.1;;;5.2;;
24867;SDS011;12941;48.698;9.310;2023-09-08T01:37:06;4.9;;;4.4;;
24867;SDS011;12941;48.698;9.310;2023-09-08T01:38:09;4.9;;;4.3;;
24867;SDS011;12941;48.698;9.310;2023-09-08T01:39:10;4.9;;;4.3;;
24867;SDS011;12941;48.698;9.310;2023-09-08T01:40:15;4.9;;;4.3;;
24867;SDS011;12941;48.698;9.310;2023-09-08T01:41:15;4.9;;;4.3;;
24867;SDS011;12941;48.698;9.310;2023-09-08T01:42:19;4.7;;;4.3;;
24867;SDS011;12941;48.698;9.310;2023-09-08T01:43:20;4.7;;;4.3;;
24867;SDS011;12941;48.698;9.310;2023-09-08T01:44:25;4.7;;;4.3;;
24867;SDS011;12941;48.698;9.310;2023-09-08T01:45:25;4.7;;;4.3;;
24867;SDS011;12941;48.698;9.310;2023-09-08T01:46:25;4.7;;;4.3;;
24867;SDS011;12941;48.698;9.310;2023-09-08T01:47:30;5.3;;;4.8;;
24867;SDS011;12941;48.698;9.310;2023-09-08T01:48:35;5.3;;;4.8;;
24867;SDS011;12941;48.698;9.310;2023-09-08T01:49:39;5.3;;;4.8;;
24867;SDS011;12941;48.698;9.310;2023-09-08T01:50:40;5.3;;;4.8;;
24867;SDS011;12941;48.698;9.310;2023-09-08T01:51:40;5.3;;;4.8;;
24867;SDS011;12941;48.698;9.310;2023-09-08T01:52:45;5.1;;;4.6;;
24867;SDS011;12941;48.698;9.310;2023-09-08T01:53:45;5.1;;;4.6;;
24867;SDS011;12941;48.698;9.310;2023-09-08T01:54:50;5.1;;;4.6;;
24867;SDS011;12941;48.698;9.310;2023-09-08T01:55:55;5.1;;;4.6;;
24867;SDS011;12941;48.698;9.310;2023-09-08T01:57:00;5.1;;;4.6;;
24867;SDS011;12941;48.698;9.310;2023-09-08T01:58:05;5.6;;;5;;
24867;SDS011;12941;48.698;9.310;2023-09-08T01:59:10;5.6;;;5;;
24867;SDS011;12941;48.698;9.310;2023-09-08T02:00:16;5.6;;;5;;
24867;SDS011;12941;48.698;9.310;2023-09-08T02:01:20;5.6;;;5;;
24867;SDS011;12941;48.698;9.310;2023-09-08T02:02:20;5.8;;;5.2;;
24867;SDS011;12941;48.698;9.310;2023-09-08T02:03:25;5.8;;;5.2;;
24867;SDS011;12941;48.698;9.310;2023-09-08T02:04:30;5.8;;;5.2;;
24867;SDS011;12941;48.698;9.310;2023-09-08T02:05:30;5.8;;;5.2;;
24867;SDS011;12941;48.698;9.310;2023-09-08T02:06:35;5.8;;;5.2;;
24867;SDS011;12941;48.698;9.310;2023-09-08T02:07:35;5.9;;;5.3;;
24867;SDS011;12941;48.698;9.310;2023-09-08T02:08:40;5.9;;;5.3;;
24867;SDS011;12941;48.698;9.310;2023-09-08T02:09:45;5.9;;;5.3;;
24867;SDS011;12941;48.698;9.310;2023-09-08T02:10:50;5.9;;;5.3;;
24867;SDS011;12941;48.698;9.310;2023-09-08T02:11:55;5.9;;;5.3;;
24867;SDS011;12941;48.698;9.310;2023-09-08T02:12:55;5.8;;;5.3;;
24867;SDS011;12941;48.698;9.310;2023-09-08T02:14:00;5.8;;;5.3;;
24867;SDS011;12941;48.698;9.310;2023-09-08T02:15:00;5.8;;;5.3;;
24867;SDS011;12941;48.698;9.310;2023-09-08T02:16:05;5.8;;;5.3;;
24867;SDS011;12941;48.698;9.310;2023-09-08T02:17:05;7.6;;;5.4;;
24867;SDS011;12941;48.698;9.310;2023-09-08T02:18:10;7.6;;;5.4;;
24867;SDS011;12941;48.698;9.310;2023-09-08T02:19:10;7.6;;;5.4;;
24867;SDS011;12941;48.698;9.310;2023-09-08T02:20:10;7.6;;;5.4;;
24867;SDS011;12941;48.698;9.310;2023-09-08T02:21:10;7.6;;;5.4;;
24867;SDS011;12941;48.698;9.310;2023-09-08T02:22:10;6.5;;;5.5;;
24867;SDS011;12941;48.698;9.310;2023-09-08T02:23:15;6.5;;;5.5;;
24867;SDS011;12941;48.698;9.310;2023-09-08T02:24:15;6.5;;;5.5;;
24867;SDS011;12941;48.698;9.310;2023-09-08T02:25:20;6.5;;;5.5;;
24867;SDS011;12941;48.698;9.310;2023-09-08T02:26:25;6.5;;;5.5;;
24867;SDS011;12941;48.698;9.310;2023-09-08T02:27:30;7.3;;;5.3;;
24867;SDS011;12941;48.698;9.310;2023-09-08T02:28:30;7.3;;;5.3;;
24867;SDS011;12941;48.698;9.310;2023-09-08T02:29:35;7.3;;;5.3;;
24867;SDS011;12941;48.698;9.310;2023-09-08T02:30:35;7.3;;;5.3;;
24867;SDS011;12941;48.698;9.310;2023-09-08T02:31:40;7.3;;;5.3;;
24867;SDS011;12941;48.698;9.310;2023-09-08T02:32:45;6.6;;;5.6;;
24867;SDS011;12941;48.698;9.310;2023-09-08T02:33:45;6.6;;;5.6;;
24867;SDS011;12941;48.698;9.310;2023-09-08T02:34:45;6.6;;;5.6;;
24867;SDS011;12941;48.698;9.310;2023-09-08T02:35:50;6.6;;;5.6;;
24867;SDS011;12941;48.698;9.310;2023-09-08T02:36:50;6.6;;;5.6;;
24867;SDS011;12941;48.698;9.310;2023-09-08T02:37:50;6.3;;;5.7;;
24867;SDS011;12941;48.698;9.310;2023-09-08T02:38:55;6.3;;;5.7;;
24867;SDS011;12941;48.698;9.310;2023-09-08T02:40:01;6.3;;;5.7;;
24867;SDS011;12941;48.698;9.310;2023-09-08T02:41:00;6.3;;;5.7;;
24867;SDS011;12941;48.698;9.310;2023-09-08T02:42:00;6.3;;;5.7;;
24867;SDS011;12941;48.698;9.310;2023-09-08T02:43:00;6;;;5.4;;
24867;SDS011;12941;48.698;9.310;2023-09-08T02:44:01;6;;;5.4;;
24867;SDS011;12941;48.698;9.310;2023-09-08T02:45:05;6;;;5.4;;
24867;SDS011;12941;48.698;9.310;2023-09-08T02:46:05;6;;;5.4;;
24867;SDS011;12941;48.698;9.310;2023-09-08T02:47:05;5.3;;;4.4;;
24867;SDS011;12941;48.698;9.310;2023-09-08T02:48:05;5.4;;;4.4;;
24867;SDS011;12941;48.698;9.310;2023-09-08T02:49:10;5.4;;;4.4;;
24867;SDS011;12941;48.698;9.310;2023-09-08T02:50:10;5.4;;;4.4;;
24867;SDS011;12941;48.698;9.310;2023-09-08T02:51:15;5.4;;;4.4;;
24867;SDS011;12941;48.698;9.310;2023-09-08T02:52:15;5.6;;;4.9;;
24867;SDS011;12941;48.698;9.310;2023-09-08T02:53:20;5.6;;;4.9;;
24867;SDS011;12941;48.698;9.310;2023-09-08T02:54:20;5.6;;;4.9;;
24867;SDS011;12941;48.698;9.310;2023-09-08T02:55:20;5.6;;;4.9;;
24867;SDS011;12941;48.698;9.310;2023-09-08T02:56:25;5.6;;;4.9;;
24867;SDS011;12941;48.698;9.310;2023-09-08T02:57:25;5.5;;;4.5;;
24867;SDS011;12941;48.698;9.310;2023-09-08T02:58:25;5.5;;;4.5;;
24867;SDS011;12941;48.698;9.310;2023-09-08T02:59:30;5.5;;;4.5;;
24867;SDS011;12941;48.698;9.310;2023-09-08T03:00:30;5.5;;;4.5;;
24867;SDS011;12941;48.698;9.310;2023-09-08T03:01:30;5.5;;;4.5;;
24867;SDS011;12941;48.698;9.310;2023-09-08T03:02:30;6.9;;;4.8;;
24867;SDS011;12941;48.698;9.310;2023-09-08T03:03:30;6.9;;;4.8;;
24867;SDS011;12941;48.698;9.310;2023-09-08T03:04:35;6.9;;;4.8;;
24867;SDS011;12941;48.698;9.310;2023-09-08T03:05:35;6.9;;;4.8;;
24867;SDS011;12941;48.698;9.310;2023-09-08T03:06:40;6.9;;;4.8;;
24867;SDS011;12941;48.698;9.310;2023-09-08T03:07:47;7.7;;;4.7;;
24867;SDS011;12941;48.698;9.310;2023-09-08T03:08:50;7.7;;;4.7;;
24867;SDS011;12941;48.698;9.310;2023-09-08T03:09:50;7.7;;;4.7;;
24867;SDS011;12941;48.698;9.310;2023-09-08T03:10:52;7.7;;;4.7;;
24867;SDS011;12941;48.698;9.310;2023-09-08T03:11:55;7.7;;;4.7;;
24867;SDS011;12941;48.698;9.310;2023-09-08T03:12:55;5.5;;;4.6;;
24867;SDS011;12941;48.698;9.310;2023-09-08T03:14:00;5.5;;;4.6;;
24867;SDS011;12941;48.698;9.310;2023-09-08T03:15:00;5.5;;;4.6;;
24867;SDS011;12941;48.698;9.310;2023-09-08T03:16:02;5.5;;;4.6;;
24867;SDS011;12941;48.698;9.310;2023-09-08T03:17:00;5.5;;;4.6;;
24867;SDS011;12941;48.698;9.310;2023-09-08T03:18:00;5.3;;;4.8;;
24867;SDS011;12941;48.698;9.310;2023-09-08T03:19:05;5.3;;;4.8;;
24867;SDS011;12941;48.698;9.310;2023-09-08T03:20:10;5.3;;;4.8;;
24867;SDS011;12941;48.698;9.310;2023-09-08T03:21:13;5.3;;;4.8;;
24867;SDS011;12941;48.698;9.310;2023-09-08T03:22:15;6.1;;;5;;
24867;SDS011;12941;48.698;9.310;2023-09-08T03:23:20;6.1;;;5;;
24867;SDS011;12941;48.698;9.310;2023-09-08T03:24:20;6.1;;;5;;
24867;SDS011;12941;48.698;9.310;2023-09-08T03:25:25;6.1;;;5;;
24867;SDS011;12941;48.698;9.310;2023-09-08T03:26:25;6.1;;;5;;
24867;SDS011;12941;48.698;9.310;2023-09-08T03:27:30;5.7;;;5.1;;
24867;SDS011;12941;48.698;9.310;2023-09-08T03:28:36;5.7;;;5.1;;
24867;SDS011;12941;48.698;9.310;2023-09-08T03:29:35;5.7;;;5.1;;
24867;SDS011;12941;48.698;9.310;2023-09-08T03:30:40;5.7;;;5.1;;
24867;SDS011;12941;48.698;9.310;2023-09-08T03:31:40;5.7;;;5.1;;
24867;SDS011;12941;48.698;9.310;2023-09-08T03:32:41;6.4;;;5.1;;
24867;SDS011;12941;48.698;9.310;2023-09-08T03:33:41;6.4;;;5.1;;
24867;SDS011;12941;48.698;9.310;2023-09-08T03:34:45;6.4;;;5.1;;
24867;SDS011;12941;48.698;9.310;2023-09-08T03:35:45;6.4;;;5.1;;
24867;SDS011;12941;48.698;9.310;2023-09-08T03:36:51;6.4;;;5.1;;
24867;SDS011;12941;48.698;9.310;2023-09-08T03:37:51;6.6;;;4.8;;
24867;SDS011;12941;48.698;9.310;2023-09-08T03:38:56;6.6;;;4.8;;
24867;SDS011;12941;48.698;9.310;2023-09-08T03:40:01;6.6;;;4.8;;
24867;SDS011;12941;48.698;9.310;2023-09-08T03:41:01;6.6;;;4.8;;
24867;SDS011;12941;48.698;9.310;2023-09-08T03:42:06;5.2;;;4.7;;
24867;SDS011;12941;48.698;9.310;2023-09-08T03:43:06;5.1;;;4.6;;
24867;SDS011;12941;48.698;9.310;2023-09-08T03:44:11;5.1;;;4.6;;
24867;SDS011;12941;48.698;9.310;2023-09-08T03:45:11;5.1;;;4.6;;
24867;SDS011;12941;48.698;9.310;2023-09-08T03:46:16;5.1;;;4.6;;
24867;SDS011;12941;48.698;9.310;2023-09-08T03:47:16;5.8;;;5.2;;
24867;SDS011;12941;48.698;9.310;2023-09-08T03:48:21;5.8;;;5.2;;
24867;SDS011;12941;48.698;9.310;2023-09-08T03:49:21;5.8;;;5.2;;
24867;SDS011;12941;48.698;9.310;2023-09-08T03:50:26;5.8;;;5.2;;
24867;SDS011;12941;48.698;9.310;2023-09-08T03:51:26;5.8;;;5.2;;
24867;SDS011;12941;48.698;9.310;2023-09-08T03:52:31;6;;;5.1;;
24867;SDS011;12941;48.698;9.310;2023-09-08T03:53:36;6;;;5.1;;
24867;SDS011;12941;48.698;9.310;2023-09-08T03:54:36;6;;;5.1;;
24867;SDS011;12941;48.698;9.310;2023-09-08T03:55:36;6;;;5.1;;
24867;SDS011;12941;48.698;9.310;2023-09-08T03:56:42;6;;;5.1;;
24867;SDS011;12941;48.698;9.310;2023-09-08T03:57:46;6.6;;;5.1;;
24867;SDS011;12941;48.698;9.310;2023-09-08T03:58:51;6.6;;;5.1;;
24867;SDS011;12941;48.698;9.310;2023-09-08T03:59:56;6.6;;;5.1;;
24867;SDS011;12941;48.698;9.310;2023-09-08T04:00:56;6.6;;;5.1;;
24867;SDS011;12941;48.698;9.310;2023-09-08T04:02:01;6.6;;;5.1;;
24867;SDS011;12941;48.698;9.310;2023-09-08T04:03:06;6.3;;;5;;
24867;SDS011;12941;48.698;9.310;2023-09-08T04:04:11;6.3;;;5;;
24867;SDS011;12941;48.698;9.310;2023-09-08T04:05:11;6.3;;;5;;
24867;SDS011;12941;48.698;9.310;2023-09-08T04:06:16;6.3;;;5;;
24867;SDS011;12941;48.698;9.310;2023-09-08T04:07:16;6.5;;;4.9;;
24867;SDS011;12941;48.698;9.310;2023-09-08T04:08:21;6.5;;;4.9;;
24867;SDS011;12941;48.698;9.310;2023-09-08T04:09:21;6.5;;;4.9;;
24867;SDS011;12941;48.698;9.310;2023-09-08T04:10:26;6.5;;;4.9;;
24867;SDS011;12941;48.698;9.310;2023-09-08T04:11:31;6.5;;;4.9;;
24867;SDS011;12941;48.698;9.310;2023-09-08T04:12:31;5.9;;;5;;
24867;SDS011;12941;48.698;9.310;2023-09-08T04:13:36;5.9;;;5;;
24867;SDS011;12941;48.698;9.310;2023-09-08T04:14:41;5.9;;;5;;
24867;SDS011;12941;48.698;9.310;2023-09-08T04:15:41;5.9;;;5;;
24867;SDS011;12941;48.698;9.310;2023-09-08T04:16:46;5.9;;;5;;
24867;SDS011;12941;48.698;9.310;2023-09-08T04:17:46;7.5;;;5.2;;
24867;SDS011;12941;48.698;9.310;2023-09-08T04:18:46;7.5;;;5.2;;
24867;SDS011;12941;48.698;9.310;2023-09-08T04:19:46;7.5;;;5.2;;
24867;SDS011;12941;48.698;9.310;2023-09-08T04:20:46;7.5;;;5.2;;
24867;SDS011;12941;48.698;9.310;2023-09-08T04:21:51;7.5;;;5.2;;
24867;SDS011;12941;48.698;9.310;2023-09-08T04:22:56;6.2;;;5.2;;
24867;SDS011;12941;48.698;9.310;2023-09-08T04:23:56;6.2;;;5.2;;
24867;SDS011;12941;48.698;9.310;2023-09-08T04:25:01;6.2;;;5.2;;
24867;SDS011;12941;48.698;9.310;2023-09-08T04:26:01;6.2;;;5.2;;
24867;SDS011;12941;48.698;9.310;2023-09-08T04:27:06;5.2;;;4.7;;
24867;SDS011;12941;48.698;9.310;2023-09-08T04:28:06;5.2;;;4.7;;
24867;SDS011;12941;48.698;9.310;2023-09-08T04:29:11;5.2;;;4.7;;
24867;SDS011;12941;48.698;9.310;2023-09-08T04:30:11;5.2;;;4.7;;
24867;SDS011;12941;48.698;9.310;2023-09-08T04:31:16;5.2;;;4.7;;
24867;SDS011;12941;48.698;9.310;2023-09-08T04:32:16;6.6;;;5.3;;
24867;SDS011;12941;48.698;9.310;2023-09-08T04:33:16;6.6;;;5.3;;
24867;SDS011;12941;48.698;9.310;2023-09-08T04:34:21;6.6;;;5.3;;
24867;SDS011;12941;48.698;9.310;2023-09-08T04:35:21;6.6;;;5.3;;
24867;SDS011;12941;48.698;9.310;2023-09-08T04:36:26;6.6;;;5.3;;
24867;SDS011;12941;48.698;9.310;2023-09-08T04:37:26;6.1;;;5.3;;
24867;SDS011;12941;48.698;9.310;2023-09-08T04:38:31;6.1;;;5.3;;
24867;SDS011;12941;48.698;9.310;2023-09-08T04:39:32;6.1;;;5.3;;
24867;SDS011;12941;48.698;9.310;2023-09-08T04:40:42;6.1;;;5.3;;
24867;SDS011;12941;48.698;9.310;2023-09-08T04:41:46;6.1;;;5.3;;
24867;SDS011;12941;48.698;9.310;2023-09-08T04:42:46;6.6;;;5.2;;
24867;SDS011;12941;48.698;9.310;2023-09-08T04:43:46;6.6;;;5.2;;
24867;SDS011;12941;48.698;9.310;2023-09-08T04:44:51;6.6;;;5.2;;
24867;SDS011;12941;48.698;9.310;2023-09-08T04:45:56;6.6;;;5.2;;
24867;SDS011;12941;48.698;9.310;2023-09-08T04:47:01;6.6;;;5.2;;
24867;SDS011;12941;48.698;9.310;2023-09-08T04:48:06;6.3;;;5.5;;
24867;SDS011;12941;48.698;9.310;2023-09-08T04:49:11;6.3;;;5.5;;
24867;SDS011;12941;48.698;9.310;2023-09-08T04:50:16;6.3;;;5.5;;
24867;SDS011;12941;48.698;9.310;2023-09-08T04:51:16;6.3;;;5.5;;
24867;SDS011;12941;48.698;9.310;2023-09-08T04:52:16;8.3;;;5.5;;
24867;SDS011;12941;48.698;9.310;2023-09-08T04:53:21;8.3;;;5.5;;
24867;SDS011;12941;48.698;9.310;2023-09-08T04:54:21;8.3;;;5.5;;
24867;SDS011;12941;48.698;9.310;2023-09-08T04:55:26;8.3;;;5.5;;
24867;SDS011;12941;48.698;9.310;2023-09-08T04:56:26;8.3;;;5.5;;
24867;SDS011;12941;48.698;9.310;2023-09-08T04:57:31;5.7;;;5.2;;
24867;SDS011;12941;48.698;9.310;2023-09-08T04:58:36;5.7;;;5.2;;
24867;SDS011;12941;48.698;9.310;2023-09-08T04:59:41;5.7;;;5.2;;
24867;SDS011;12941;48.698;9.310;2023-09-08T05:00:41;5.7;;;5.2;;
24867;SDS011;12941;48.698;9.310;2023-09-08T05:01:41;5.7;;;5.2;;
24867;SDS011;12941;48.698;9.310;2023-09-08T05:02:42;5.2;;;4.7;;
24867;SDS011;12941;48.698;9.310;2023-09-08T05:03:42;5.2;;;4.7;;
24867;SDS011;12941;48.698;9.310;2023-09-08T05:04:46;5.2;;;4.7;;
24867;SDS011;12941;48.698;9.310;2023-09-08T05:05:46;5.2;;;4.7;;
24867;SDS011;12941;48.698;9.310;2023-09-08T05:06:51;5.2;;;4.7;;
24867;SDS011;12941;48.698;9.310;2023-09-08T05:07:51;7.1;;;5.2;;
24867;SDS011;12941;48.698;9.310;2023-09-08T05:08:52;7.1;;;5.2;;
24867;SDS011;12941;48.698;9.310;2023-09-08T05:09:56;7.1;;;5.2;;
24867;SDS011;12941;48.698;9.310;2023-09-08T05:10:56;7.1;;;5.2;;
24867;SDS011;12941;48.698;9.310;2023-09-08T05:12:02;7.1;;;5.2;;
24867;SDS011;12941;48.698;9.310;2023-09-08T05:13:02;6.2;;;5.4;;
24867;SDS011;12941;48.698;9.310;2023-09-08T05:14:07;6.2;;;5.4;;
24867;SDS011;12941;48.698;9.310;2023-09-08T05:15:07;6.2;;;5.4;;
24867;SDS011;12941;48.698;9.310;2023-09-08T05:16:12;6.2;;;5.4;;
24867;SDS011;12941;48.698;9.310;2023-09-08T05:17:17;7.2;;;5.8;;
24867;SDS011;12941;48.698;9.310;2023-09-08T05:18:17;7.2;;;5.8;;
24867;SDS011;12941;48.698;9.310;2023-09-08T05:19:17;7.2;;;5.8;;
24867;SDS011;12941;48.698;9.310;2023-09-08T05:20:17;7.2;;;5.8;;
24867;SDS011;12941;48.698;9.310;2023-09-08T05:21:17;7.2;;;5.8;;
24867;SDS011;12941;48.698;9.310;2023-09-08T05:22:22;6.1;;;5.5;;
24867;SDS011;12941;48.698;9.310;2023-09-08T05:23:22;6.1;;;5.5;;
24867;SDS011;12941;48.698;9.310;2023-09-08T05:24:27;6.1;;;5.5;;
24867;SDS011;12941;48.698;9.310;2023-09-08T05:25:32;6.1;;;5.5;;
24867;SDS011;12941;48.698;9.310;2023-09-08T05:26:32;6.1;;;5.5;;
24867;SDS011;12941;48.698;9.310;2023-09-08T05:27:32;7.3;;;4.9;;
24867;SDS011;12941;48.698;9.310;2023-09-08T05:28:32;7.3;;;4.9;;
24867;SDS011;12941;48.698;9.310;2023-09-08T05:29:37;7.3;;;4.9;;
24867;SDS011;12941;48.698;9.310;2023-09-08T05:30:37;7.3;;;4.9;;
24867;SDS011;12941;48.698;9.310;2023-09-08T05:31:37;7.3;;;4.9;;
24867;SDS011;12941;48.698;9.310;2023-09-08T05:32:42;5.1;;;4.6;;
24867;SDS011;12941;48.698;9.310;2023-09-08T05:33:42;5.1;;;4.6;;
24867;SDS011;12941;48.698;9.310;2023-09-08T05:34:47;5.1;;;4.6;;
24867;SDS011;12941;48.698;9.310;2023-09-08T05:35:47;5.1;;;4.6;;
24867;SDS011;12941;48.698;9.310;2023-09-08T05:36:47;5.1;;;4.6;;
24867;SDS011;12941;48.698;9.310;2023-09-08T05:37:52;7;;;5.4;;
24867;SDS011;12941;48.698;9.310;2023-09-08T05:38:58;7;;;5.4;;
24867;SDS011;12941;48.698;9.310;2023-09-08T05:40:02;7;;;5.4;;
24867;SDS011;12941;48.698;9.310;2023-09-08T05:41:02;7;;;5.4;;
24867;SDS011;12941;48.698;9.310;2023-09-08T05:42:02;7.1;;;5.2;;
24867;SDS011;12941;48.698;9.310;2023-09-08T05:43:07;7;;;5.2;;
24867;SDS011;12941;48.698;9.310;2023-09-08T05:44:07;7;;;5.2;;
24867;SDS011;12941;48.698;9.310;2023-09-08T05:45:07;7;;;5.2;;
24867;SDS011;12941;48.698;9.310;2023-09-08T05:46:12;7;;;5.2;;
24867;SDS011;12941;48.698;9.310;2023-09-08T05:47:12;7.4;;;5.7;;
24867;SDS011;12941;48.698;9.310;2023-09-08T05:48:17;7.4;;;5.7;;
24867;SDS011;12941;48.698;9.310;2023-09-08T05:49:22;7.4;;;5.7;;
24867;SDS011;12941;48.698;9.310;2023-09-08T05:50:22;7.4;;;5.7;;
24867;SDS011;12941;48.698;9.310;2023-09-08T05:51:27;7.4;;;5.7;;
24867;SDS011;12941;48.698;9.310;2023-09-08T05:52:27;8.7;;;5.8;;
24867;SDS011;12941;48.698;9.310;2023-09-08T05:53:32;8.7;;;5.8;;
24867;SDS011;12941;48.698;9.310;2023-09-08T05:54:37;8.7;;;5.8;;
24867;SDS011;12941;48.698;9.310;2023-09-08T05:55:42;8.7;;;5.8;;
24867;SDS011;12941;48.698;9.310;2023-09-08T05:56:42;8.7;;;5.8;;
24867;SDS011;12941;48.698;9.310;2023-09-08T05:57:47;6.8;;;6.1;;
24867;SDS011;12941;48.698;9.310;2023-09-08T05:58:52;6.8;;;6.1;;
24867;SDS011;12941;48.698;9.310;2023-09-08T05:59:57;6.8;;;6.1;;
24867;SDS011;12941;48.698;9.310;2023-09-08T06:00:57;6.8;;;6.1;;
24867;SDS011;12941;48.698;9.310;2023-09-08T06:01:57;6.8;;;6.1;;
24867;SDS011;12941;48.698;9.310;2023-09-08T06:03:02;6.6;;;5.4;;
24867;SDS011;12941;48.698;9.310;2023-09-08T06:04:07;6.6;;;5.4;;
24867;SDS011;12941;48.698;9.310;2023-09-08T06:05:12;6.6;;;5.4;;
24867;SDS011;12941;48.698;9.310;2023-09-08T06:06:12;6.6;;;5.4;;
24867;SDS011;12941;48.698;9.310;2023-09-08T06:07:17;6.5;;;5.8;;
24867;SDS011;12941;48.698;9.310;2023-09-08T06:08:17;6.5;;;5.8;;
24867;SDS011;12941;48.698;9.310;2023-09-08T06:09:22;6.5;;;5.8;;
24867;SDS011;12941;48.698;9.310;2023-09-08T06:10:22;6.5;;;5.8;;
24867;SDS011;12941;48.698;9.310;2023-09-08T06:11:27;6.5;;;5.8;;
24867;SDS011;12941;48.698;9.310;2023-09-08T06:12:32;8.3;;;5.9;;
24867;SDS011;12941;48.698;9.310;2023-09-08T06:13:37;8.3;;;5.9;;
24867;SDS011;12941;48.698;9.310;2023-09-08T06:14:42;8.3;;;5.9;;
24867;SDS011;12941;48.698;9.310;2023-09-08T06:15:42;8.3;;;5.9;;
24867;SDS011;12941;48.698;9.310;2023-09-08T06:16:47;8.3;;;5.9;;
24867;SDS011;12941;48.698;9.310;2023-09-08T06:17:47;7.6;;;6;;
24867;SDS011;12941;48.698;9.310;2023-09-08T06:18:52;7.6;;;6;;
24867;SDS011;12941;48.698;9.310;2023-09-08T06:19:52;7.6;;;6;;
24867;SDS011;12941;48.698;9.310;2023-09-08T06:20:52;7.6;;;6;;
24867;SDS011;12941;48.698;9.310;2023-09-08T06:21:52;7.6;;;6;;
24867;SDS011;12941;48.698;9.310;2023-09-08T06:22:52;10.4;;;6.7;;
24867;SDS011;12941;48.698;9.310;2023-09-08T06:23:57;10.4;;;6.7;;
24867;SDS011;12941;48.698;9.310;2023-09-08T06:24:57;10.4;;;6.7;;
24867;SDS011;12941;48.698;9.310;2023-09-08T06:26:02;10.4;;;6.7;;
24867;SDS011;12941;48.698;9.310;2023-09-08T06:27:02;8.7;;;6.4;;
24867;SDS011;12941;48.698;9.310;2023-09-08T06:28:07;8.8;;;6.4;;
24867;SDS011;12941;48.698;9.310;2023-09-08T06:29:12;8.8;;;6.4;;
24867;SDS011;12941;48.698;9.310;2023-09-08T06:30:12;8.8;;;6.4;;
24867;SDS011;12941;48.698;9.310;2023-09-08T06:31:17;8.8;;;6.4;;